Maimiti — PBIJ — position and weather

sailwx.info

Track history (hours):
 
Tides and Currents Weather Stations Pressure Air Temp Water Temp Dewpoint Dewpoint Depression Visibility Wind Speed Wind Dir Waves Ship Positions

Maimiti

Last reported at 2014-Sep-01 07:33 UTC. Time now 2014-Sep-01 07:59 UTC.
Position N 53°32' E 004°56'.

Length 87 m; draft 4.8 m.

Type: Cargo ship. MMSI: 244312000.

Date/timePositionNaut miles runAvg speedWind from/ knotsBaromVisibWave heightAir tempDewpointWater temp
2014-Sep-01 07:33N 53°32' E 004°56'1110.7
2014-Sep-01 06:33N 53°35' E 005°13'1211.6
2014-Sep-01 05:33N 53°39' E 005°32'1211.6
2014-Sep-01 04:33N 53°43' E 005°50'6210.3
2014-Aug-31 22:33N 53°59' E 007°32'1010.2
2014-Aug-31 21:33N 54°01' E 007°48'1211.3
2014-Aug-31 20:30N 54°01' E 008°09'1212.5
2014-Aug-31 19:30N 53°59' E 008°30'1212.7
2014-Aug-31 18:33N 53°51' E 008°45'1111.4
2014-Aug-31 17:33N 53°53' E 009°05'3 2.5
2014-Aug-31 16:33N 53°54' E 009°09'7 7.3
2014-Aug-31 15:33N 53°59' E 009°17'10 8.8
2014-Aug-31 14:26N 54°09' E 009°21'0 0.5
2014-Aug-31 13:32N 54°09' E 009°22'3 3.0
2014-Aug-31 12:32N 54°10' E 009°26'76 7.6
2014-Aug-31 02:31N 54°30' E 011°33'1111.0
2014-Aug-31 01:33N 54°28' E 011°51'1010.2
2014-Aug-31 00:33N 54°28' E 012°09'10 9.7
2014-Aug-30 23:33N 54°34' E 012°21'1110.7
2014-Aug-30 22:33N 54°40' E 012°37'1111.2
2014-Aug-30 21:33N 54°42' E 012°55'1111.5
2014-Aug-30 20:33N 54°44' E 013°15'1111.0
2014-Aug-30 19:33N 54°46' E 013°34'1110.9
2014-Aug-30 18:33N 54°48' E 013°52'1110.8
2014-Aug-30 17:31N 54°50' E 014°12'1110.9
2014-Aug-30 16:30N 54°52' E 014°31'12910.8
2014-Aug-30 04:33N 55°21' E 018°10'1010.5
2014-Aug-30 03:33N 55°23' E 018°28'1010.3
2014-Aug-30 02:33N 55°26' E 018°45'1010.3
2014-Aug-30 01:33N 55°28' E 019°03'1010.1
2014-Aug-30 00:31N 55°30' E 019°21'39 1.5
2014-Aug-28 22:22N 54°55' E 019°51'1011.4
2014-Aug-28 21:32N 54°45' E 019°50'22 2.6
2014-Aug-28 13:07N 54°42' E 020°28'2 0.2
2014-Aug-28 04:32N 54°42' E 020°25'10 7.9
2014-Aug-28 03:15N 54°40' E 020°08'5 7.6
2014-Aug-28 02:33N 54°38' E 019°59'8 8.4
2014-Aug-28 01:33N 54°41' E 019°45'1111.0
2014-Aug-28 00:33N 54°43' E 019°27'1211.5
2014-Aug-27 23:33N 54°46' E 019°07'1111.3
2014-Aug-27 22:33N 54°49' E 018°48'1111.3
2014-Aug-27 21:33N 54°52' E 018°29'1111.3
2014-Aug-27 20:33N 54°53' E 018°10'3411.2
2014-Aug-27 17:33N 54°59' E 017°12'6610.9
2014-Aug-27 11:28N 54°55' E 015°17'2211.2
2014-Aug-27 09:33N 54°58' E 014°40'1111.1
2014-Aug-27 08:33N 55°04' E 014°24'3411.2
2014-Aug-27 05:31N 55°12' E 013°26'1212.0
2014-Aug-27 04:33N 55°13' E 013°06'1211.5
2014-Aug-27 03:33N 55°16' E 012°46'9 8.6
2014-Aug-27 02:33N 55°24' E 012°40'1111.1
2014-Aug-27 01:33N 55°35' E 012°42'1111.0
2014-Aug-27 00:33N 55°46' E 012°41'1111.0
2014-Aug-26 23:33N 55°57' E 012°38'1010.0
2014-Aug-26 22:33N 56°06' E 012°32'1111.0
2014-Aug-26 21:33N 56°16' E 012°25'1211.5
2014-Aug-26 20:34N 56°28' E 012°30'57 3.0
2014-Aug-26 01:19N 57°18' E 011°41'810.6
2014-Aug-26 00:33N 57°24' E 011°30'1110.8
2014-Aug-25 23:33N 57°31' E 011°15'1110.8
2014-Aug-25 22:30N 57°39' E 010°60'1010.5
2014-Aug-25 21:33N 57°46' E 010°46'1010.2
2014-Aug-25 20:33N 57°45' E 010°27'7910.6
2014-Aug-25 13:03N 57°06' E 008°19'219 9.7
2014-Aug-24 14:33N 54°00' E 004°56'79 9.3
2014-Aug-24 06:03N 52°43' E 004°29'510.2
2014-Aug-24 05:33N 52°38' E 004°31'1010.2
2014-Aug-24 04:34N 52°28' E 004°33'3 2.9
2014-Aug-24 03:33N 52°28' E 004°38'0 0.0
2014-Aug-24 02:33N 52°28' E 004°38'0 0.0
2014-Aug-24 01:33N 52°28' E 004°38'0 0.0
2014-Aug-24 00:33N 52°28' E 004°38'0 0.0
2014-Aug-23 23:33N 52°28' E 004°38'0 0.0
2014-Aug-23 22:33N 52°28' E 004°38'0 0.0
2014-Aug-23 21:33N 52°28' E 004°38'0 0.0
2014-Aug-23 20:33N 52°28' E 004°38'0 0.0
2014-Aug-23 19:33N 52°28' E 004°38'0 0.0
2014-Aug-23 03:33N 52°28' E 004°38'0 0.0
2014-Aug-23 02:33N 52°28' E 004°38'0 0.0
2014-Aug-23 01:33N 52°28' E 004°38'0 0.0
2014-Aug-23 00:33N 52°28' E 004°38'0 0.0
2014-Aug-22 23:33N 52°28' E 004°38'0 0.0
2014-Aug-22 22:33N 52°28' E 004°38'0 0.0
2014-Aug-22 21:33N 52°28' E 004°38'0 0.0
2014-Aug-22 20:33N 52°28' E 004°38'0 0.0
2014-Aug-22 19:33N 52°28' E 004°38'0 0.0
2014-Aug-22 18:33N 52°28' E 004°38'0 0.0
2014-Aug-22 17:33N 52°28' E 004°38'0 0.0
2014-Aug-22 16:33N 52°28' E 004°38'0 0.0
2014-Aug-22 15:33N 52°28' E 004°38'0 0.0
2014-Aug-22 14:33N 52°28' E 004°38'0 0.0
2014-Aug-22 13:33N 52°28' E 004°38'0 0.0
2014-Aug-22 12:33N 52°28' E 004°38'0 0.0
2014-Aug-22 11:33N 52°28' E 004°38'0 0.0
2014-Aug-22 10:33N 52°28' E 004°38'0 0.0
2014-Aug-22 09:33N 52°28' E 004°38'0 0.0
2014-Aug-22 08:33N 52°28' E 004°38'0 0.0
2014-Aug-22 07:33N 52°28' E 004°38'  
Track history (hours):
 
Tides and Currents Weather Stations Pressure Air Temp Water Temp Dewpoint Dewpoint Depression Visibility Wind Speed Wind Dir Waves Ship Positions

Maimiti

Last reported at 2014-Sep-01 07:33 UTC. Time now 2014-Sep-01 07:59 UTC.
Position N 53°32' E 004°56'.

Length 87 m; draft 4.8 m.

Type: Cargo ship. MMSI: 244312000.

Date/timePositionNaut miles runAvg speedWind from/ knotsBaromVisibWave heightAir tempDewpointWater temp
2014-Sep-01 07:33N 53°32' E 004°56'1110.7
2014-Sep-01 06:33N 53°35' E 005°13'1211.6
2014-Sep-01 05:33N 53°39' E 005°32'1211.6
2014-Sep-01 04:33N 53°43' E 005°50'6210.3
2014-Aug-31 22:33N 53°59' E 007°32'1010.2
2014-Aug-31 21:33N 54°01' E 007°48'1211.3
2014-Aug-31 20:30N 54°01' E 008°09'1212.5
2014-Aug-31 19:30N 53°59' E 008°30'1212.7
2014-Aug-31 18:33N 53°51' E 008°45'1111.4
2014-Aug-31 17:33N 53°53' E 009°05'3 2.5
2014-Aug-31 16:33N 53°54' E 009°09'7 7.3
2014-Aug-31 15:33N 53°59' E 009°17'10 8.8
2014-Aug-31 14:26N 54°09' E 009°21'0 0.5
2014-Aug-31 13:32N 54°09' E 009°22'3 3.0
2014-Aug-31 12:32N 54°10' E 009°26'76 7.6
2014-Aug-31 02:31N 54°30' E 011°33'1111.0
2014-Aug-31 01:33N 54°28' E 011°51'1010.2
2014-Aug-31 00:33N 54°28' E 012°09'10 9.7
2014-Aug-30 23:33N 54°34' E 012°21'1110.7
2014-Aug-30 22:33N 54°40' E 012°37'1111.2
2014-Aug-30 21:33N 54°42' E 012°55'1111.5
2014-Aug-30 20:33N 54°44' E 013°15'1111.0
2014-Aug-30 19:33N 54°46' E 013°34'1110.9
2014-Aug-30 18:33N 54°48' E 013°52'1110.8
2014-Aug-30 17:31N 54°50' E 014°12'1110.9
2014-Aug-30 16:30N 54°52' E 014°31'12910.8
2014-Aug-30 04:33N 55°21' E 018°10'1010.5
2014-Aug-30 03:33N 55°23' E 018°28'1010.3
2014-Aug-30 02:33N 55°26' E 018°45'1010.3
2014-Aug-30 01:33N 55°28' E 019°03'1010.1
2014-Aug-30 00:31N 55°30' E 019°21'39 1.5
2014-Aug-28 22:22N 54°55' E 019°51'1011.4
2014-Aug-28 21:32N 54°45' E 019°50'22 2.6
2014-Aug-28 13:07N 54°42' E 020°28'2 0.2
2014-Aug-28 04:32N 54°42' E 020°25'10 7.9
2014-Aug-28 03:15N 54°40' E 020°08'5 7.6
2014-Aug-28 02:33N 54°38' E 019°59'8 8.4
2014-Aug-28 01:33N 54°41' E 019°45'1111.0
2014-Aug-28 00:33N 54°43' E 019°27'1211.5
2014-Aug-27 23:33N 54°46' E 019°07'1111.3
2014-Aug-27 22:33N 54°49' E 018°48'1111.3
2014-Aug-27 21:33N 54°52' E 018°29'1111.3
2014-Aug-27 20:33N 54°53' E 018°10'3411.2
2014-Aug-27 17:33N 54°59' E 017°12'6610.9
2014-Aug-27 11:28N 54°55' E 015°17'2211.2
2014-Aug-27 09:33N 54°58' E 014°40'1111.1
2014-Aug-27 08:33N 55°04' E 014°24'3411.2
2014-Aug-27 05:31N 55°12' E 013°26'1212.0
2014-Aug-27 04:33N 55°13' E 013°06'1211.5
2014-Aug-27 03:33N 55°16' E 012°46'9 8.6
2014-Aug-27 02:33N 55°24' E 012°40'1111.1
2014-Aug-27 01:33N 55°35' E 012°42'1111.0
2014-Aug-27 00:33N 55°46' E 012°41'1111.0
2014-Aug-26 23:33N 55°57' E 012°38'1010.0
2014-Aug-26 22:33N 56°06' E 012°32'1111.0
2014-Aug-26 21:33N 56°16' E 012°25'1211.5
2014-Aug-26 20:34N 56°28' E 012°30'57 3.0
2014-Aug-26 01:19N 57°18' E 011°41'810.6
2014-Aug-26 00:33N 57°24' E 011°30'1110.8
2014-Aug-25 23:33N 57°31' E 011°15'1110.8
2014-Aug-25 22:30N 57°39' E 010°60'1010.5
2014-Aug-25 21:33N 57°46' E 010°46'1010.2
2014-Aug-25 20:33N 57°45' E 010°27'7910.6
2014-Aug-25 13:03N 57°06' E 008°19'219 9.7
2014-Aug-24 14:33N 54°00' E 004°56'79 9.3
2014-Aug-24 06:03N 52°43' E 004°29'510.2
2014-Aug-24 05:33N 52°38' E 004°31'1010.2
2014-Aug-24 04:34N 52°28' E 004°33'3 2.9
2014-Aug-24 03:33N 52°28' E 004°38'0 0.0
2014-Aug-24 02:33N 52°28' E 004°38'0 0.0
2014-Aug-24 01:33N 52°28' E 004°38'0 0.0
2014-Aug-24 00:33N 52°28' E 004°38'0 0.0
2014-Aug-23 23:33N 52°28' E 004°38'0 0.0
2014-Aug-23 22:33N 52°28' E 004°38'0 0.0
2014-Aug-23 21:33N 52°28' E 004°38'0 0.0
2014-Aug-23 20:33N 52°28' E 004°38'0 0.0
2014-Aug-23 19:33N 52°28' E 004°38'0 0.0
2014-Aug-23 03:33N 52°28' E 004°38'0 0.0
2014-Aug-23 02:33N 52°28' E 004°38'0 0.0
2014-Aug-23 01:33N 52°28' E 004°38'0 0.0
2014-Aug-23 00:33N 52°28' E 004°38'0 0.0
2014-Aug-22 23:33N 52°28' E 004°38'0 0.0
2014-Aug-22 22:33N 52°28' E 004°38'0 0.0
2014-Aug-22 21:33N 52°28' E 004°38'0 0.0
2014-Aug-22 20:33N 52°28' E 004°38'0 0.0
2014-Aug-22 19:33N 52°28' E 004°38'0 0.0
2014-Aug-22 18:33N 52°28' E 004°38'0 0.0
2014-Aug-22 17:33N 52°28' E 004°38'0 0.0
2014-Aug-22 16:33N 52°28' E 004°38'0 0.0
2014-Aug-22 15:33N 52°28' E 004°38'0 0.0
2014-Aug-22 14:33N 52°28' E 004°38'0 0.0
2014-Aug-22 13:33N 52°28' E 004°38'0 0.0
2014-Aug-22 12:33N 52°28' E 004°38'0 0.0
2014-Aug-22 11:33N 52°28' E 004°38'0 0.0
2014-Aug-22 10:33N 52°28' E 004°38'0 0.0
2014-Aug-22 09:33N 52°28' E 004°38'0 0.0
2014-Aug-22 08:33N 52°28' E 004°38'0 0.0
2014-Aug-22 07:33N 52°28' E 004°38'  

Dump ship's entire track history